createdAt,value
2019-02-08T00:00:04.032Z,785.19
2019-02-08T00:00:09.963Z,785.13
2019-02-08T00:00:14.411Z,785.14
2019-02-08T00:00:18.795Z,785.13
2019-02-08T00:00:23.132Z,785.15
2019-02-08T00:00:27.516Z,785.13
2019-02-08T00:00:31.873Z,785.16
2019-02-08T00:00:36.252Z,785.13
2019-02-08T00:00:40.488Z,785.07
2019-02-08T00:00:44.851Z,785.1
2019-02-08T00:00:49.218Z,785.1
2019-02-08T00:00:53.561Z,785.11
2019-02-08T00:00:57.967Z,785.13
2019-02-08T00:01:02.320Z,785.13
2019-02-08T00:01:06.670Z,785.11
2019-02-08T00:01:10.938Z,785.15
2019-02-08T00:01:16.677Z,785.14
2019-02-08T00:01:21.664Z,785.09
2019-02-08T00:01:26.116Z,785.07
2019-02-08T00:01:30.456Z,785.09
2019-02-08T00:01:34.819Z,785.07
2019-02-08T00:01:39.188Z,785.1
2019-02-08T00:01:43.536Z,785.11
2019-02-08T00:01:47.916Z,785.14
2019-02-08T00:01:52.242Z,785.09
2019-02-08T00:01:56.516Z,785.09
2019-02-08T00:02:00.882Z,785.08
2019-02-08T00:02:05.132Z,785.1
2019-02-08T00:02:09.287Z,785.08
2019-02-08T00:02:13.668Z,785.09
2019-02-08T00:02:17.991Z,785.11
2019-02-08T00:02:22.831Z,785.11
2019-02-08T00:02:28.601Z,785.09
2019-02-08T00:02:33.004Z,785.14
2019-02-08T00:02:37.256Z,785.11
2019-02-08T00:02:41.597Z,785.12
2019-02-08T00:02:45.968Z,785.11
2019-02-08T00:02:50.202Z,785.12
2019-02-08T00:02:54.567Z,785.07
2019-02-08T00:02:58.890Z,785.09
2019-02-08T00:03:03.299Z,785.08
2019-02-08T00:03:07.696Z,785.04
2019-02-08T00:03:12.065Z,785.05
2019-02-08T00:03:16.422Z,785.1
2019-02-08T00:03:20.760Z,785.12
2019-02-08T00:03:25.110Z,785.1
2019-02-08T00:03:29.337Z,785.11
2019-02-08T00:03:34.842Z,785.1
2019-02-08T00:03:39.777Z,785.09
2019-02-08T00:03:44.018Z,785.1
2019-02-08T00:03:48.281Z,785.11
2019-02-08T00:03:52.535Z,785.12
2019-02-08T00:03:56.865Z,785.12
2019-02-08T00:04:01.380Z,785.11
2019-02-08T00:04:05.728Z,785.13
2019-02-08T00:04:09.981Z,785.08
2019-02-08T00:04:14.304Z,785.09
2019-02-08T00:04:18.673Z,785.14
2019-02-08T00:04:23.026Z,785.12
2019-02-08T00:04:27.402Z,785.09
2019-02-08T00:04:31.676Z,785.1
2019-02-08T00:04:35.986Z,785.1
2019-02-08T00:04:40.311Z,785.09
2019-02-08T00:04:46.267Z,785.13
2019-02-08T00:04:50.733Z,785.12
2019-02-08T00:04:55.064Z,785.1
2019-02-08T00:04:59.428Z,785.14
2019-02-08T00:05:04.053Z,785.1
2019-02-08T00:05:08.394Z,785.08
2019-02-08T00:05:12.784Z,785.09
2019-02-08T00:05:17.066Z,785.07
2019-02-08T00:05:21.409Z,785.09
2019-02-08T00:05:26.010Z,785.13
2019-02-08T00:05:30.357Z,785.07
2019-02-08T00:05:34.759Z,785.06
2019-02-08T00:05:39.129Z,785.07
2019-02-08T00:05:43.486Z,785.07
2019-02-08T00:05:47.748Z,785.09
2019-02-08T00:05:53.455Z,785.08
2019-02-08T00:05:58.266Z,785.08
2019-02-08T00:06:02.668Z,785.11
2019-02-08T00:06:06.809Z,785.13
2019-02-08T00:06:11.137Z,785.15
2019-02-08T00:06:15.379Z,785.11
2019-02-08T00:06:19.624Z,785.1
2019-02-08T00:06:23.881Z,785.12
2019-02-08T00:06:28.263Z,785.14
2019-02-08T00:06:32.528Z,785.09
2019-02-08T00:06:36.817Z,785.11
2019-02-08T00:06:41.120Z,785.1
2019-02-08T00:06:45.320Z,785.12
2019-02-08T00:06:49.969Z,785.1
2019-02-08T00:06:55.991Z,785.12
2019-02-08T00:07:01.139Z,785.09
2019-02-08T00:07:06.616Z,785.14
2019-02-08T00:07:11.010Z,785.12
2019-02-08T00:07:15.420Z,785.07
2019-02-08T00:07:19.812Z,785.03
2019-02-08T00:07:24.168Z,785.07
2019-02-08T00:07:28.528Z,785.07
2019-02-08T00:07:32.896Z,785.12
2019-02-08T00:07:37.231Z,785.08
2019-02-08T00:07:41.607Z,785.1
2019-02-08T00:07:45.984Z,785.1
2019-02-08T00:07:50.369Z,785.09
2019-02-08T00:07:54.727Z,785.09
2019-02-08T00:07:59.107Z,785.11
2019-02-08T00:08:03.459Z,785.15
2019-02-08T00:08:07.944Z,785.09
2019-02-08T00:08:14.135Z,785.1
2019-02-08T00:08:18.443Z,785.09
2019-02-08T00:08:22.694Z,785.1
2019-02-08T00:08:27.116Z,785.09
2019-02-08T00:08:31.437Z,785.09
2019-02-08T00:08:35.670Z,785.1
2019-02-08T00:08:40.001Z,785.11
2019-02-08T00:08:44.144Z,785.09
2019-02-08T00:08:48.417Z,784.98
2019-02-08T00:08:52.810Z,784.96
2019-02-08T00:08:57.171Z,784.91
2019-02-08T00:09:01.457Z,784.91
2019-02-08T00:09:05.791Z,784.94
2019-02-08T00:09:10.136Z,784.93
2019-02-08T00:09:14.483Z,784.94
2019-02-08T00:09:19.694Z,784.93
2019-02-08T00:09:25.401Z,784.98
2019-02-08T00:09:29.746Z,784.97
2019-02-08T00:09:34.134Z,784.98
2019-02-08T00:09:38.497Z,784.93
2019-02-08T00:09:42.837Z,784.94
2019-02-08T00:09:47.214Z,784.95
2019-02-08T00:09:51.497Z,784.95
2019-02-08T00:09:55.827Z,784.9
2019-02-08T00:10:00.097Z,784.98
2019-02-08T00:10:04.902Z,784.99
2019-02-08T00:10:09.127Z,784.98
2019-02-08T00:10:13.096Z,784.94
2019-02-08T00:10:17.419Z,784.9
2019-02-08T00:10:21.563Z,784.91
2019-02-08T00:10:25.881Z,784.95
2019-02-08T00:10:32.196Z,784.93
2019-02-08T00:10:36.571Z,784.92
2019-02-08T00:10:40.799Z,784.96
2019-02-08T00:10:45.022Z,784.91
2019-02-08T00:10:49.397Z,784.88
2019-02-08T00:10:53.724Z,784.88
2019-02-08T00:10:58.098Z,784.9
2019-02-08T00:11:02.463Z,784.88
2019-02-08T00:11:06.794Z,784.85
2019-02-08T00:11:11.128Z,784.9
2019-02-08T00:11:15.462Z,784.92
2019-02-08T00:11:19.794Z,784.9
2019-02-08T00:11:24.122Z,784.89
2019-02-08T00:11:28.357Z,784.9
2019-02-08T00:11:32.672Z,784.9
2019-02-08T00:11:37.471Z,784.91
2019-02-08T00:11:43.197Z,784.91
2019-02-08T00:11:47.535Z,784.94
2019-02-08T00:11:51.879Z,784.92
2019-02-08T00:11:56.204Z,784.9
2019-02-08T00:12:00.549Z,784.92
2019-02-08T00:12:04.806Z,784.87
2019-02-08T00:12:09.129Z,784.83
2019-02-08T00:12:13.491Z,784.92
2019-02-08T00:12:20.225Z,784.92
2019-02-08T00:12:24.480Z,784.92
2019-02-08T00:12:28.799Z,784.94
2019-02-08T00:12:33.119Z,784.93
2019-02-08T00:12:37.470Z,784.9
2019-02-08T00:12:41.791Z,784.88
2019-02-08T00:12:46.729Z,784.97
2019-02-08T00:12:52.690Z,784.93
2019-02-08T00:12:57.043Z,784.85
2019-02-08T00:13:01.405Z,784.92
2019-02-08T00:13:05.825Z,784.95
2019-02-08T00:13:10.079Z,784.95
2019-02-08T00:13:14.418Z,784.94
2019-02-08T00:13:18.762Z,784.98
2019-02-08T00:13:23.001Z,784.97
2019-02-08T00:13:27.352Z,784.95
2019-02-08T00:13:31.677Z,785
2019-02-08T00:13:35.962Z,784.97
2019-02-08T00:13:40.314Z,784.99
2019-02-08T00:13:44.604Z,784.95
2019-02-08T00:13:48.968Z,784.93
2019-02-08T00:13:53.207Z,784.89
2019-02-08T00:13:59.165Z,784.91
2019-02-08T00:14:03.899Z,784.82
2019-02-08T00:14:08.130Z,784.85
2019-02-08T00:14:12.508Z,784.86
2019-02-08T00:14:16.883Z,784.86
2019-02-08T00:14:21.249Z,784.89
2019-02-08T00:14:25.577Z,784.86
2019-02-08T00:14:29.778Z,784.89
2019-02-08T00:14:34.175Z,784.82
2019-02-08T00:14:38.500Z,784.78
2019-02-08T00:14:42.819Z,784.79
2019-02-08T00:14:47.054Z,784.76
2019-02-08T00:14:51.399Z,784.81
2019-02-08T00:14:55.629Z,784.8
2019-02-08T00:14:59.998Z,784.77
2019-02-08T00:15:05.128Z,784.81
2019-02-08T00:15:11.063Z,784.77
2019-02-08T00:15:15.433Z,784.82
2019-02-08T00:15:19.842Z,784.81
2019-02-08T00:15:24.144Z,784.84
2019-02-08T00:15:28.377Z,784.82
2019-02-08T00:15:32.754Z,784.83
2019-02-08T00:15:37.108Z,784.84
2019-02-08T00:15:41.481Z,784.8
2019-02-08T00:15:45.799Z,784.77
2019-02-08T00:15:50.126Z,784.8
2019-02-08T00:15:54.583Z,784.78
2019-02-08T00:15:58.920Z,784.83
2019-02-08T00:16:03.325Z,784.85
2019-02-08T00:16:07.583Z,784.86
2019-02-08T00:16:11.958Z,784.79
2019-02-08T00:16:17.880Z,784.78
2019-02-08T00:16:22.791Z,784.82
2019-02-08T00:16:27.120Z,784.78
2019-02-08T00:16:31.339Z,784.8
2019-02-08T00:16:35.666Z,784.81
2019-02-08T00:16:40.019Z,784.81
2019-02-08T00:16:44.357Z,784.84
2019-02-08T00:16:48.697Z,784.87
2019-02-08T00:16:53.079Z,784.86
2019-02-08T00:16:57.453Z,784.81
2019-02-08T00:17:01.797Z,784.86
2019-02-08T00:17:06.207Z,784.9
2019-02-08T00:17:10.604Z,784.87
2019-02-08T00:17:14.969Z,784.87
2019-02-08T00:17:19.357Z,784.89
2019-02-08T00:17:24.326Z,784.88
2019-02-08T00:17:29.885Z,784.82
2019-02-08T00:17:35.349Z,784.87
2019-02-08T00:17:39.669Z,784.82
2019-02-08T00:17:43.990Z,784.87
2019-02-08T00:17:48.307Z,784.79
2019-02-08T00:17:52.662Z,784.9
2019-02-08T00:17:56.882Z,784.78
2019-02-08T00:18:01.372Z,784.74
2019-02-08T00:18:05.614Z,784.82
2019-02-08T00:18:09.963Z,784.81
2019-02-08T00:18:14.273Z,784.82
2019-02-08T00:18:18.587Z,784.81
2019-02-08T00:18:22.905Z,784.74
2019-02-08T00:18:27.132Z,784.77
2019-02-08T00:18:31.496Z,784.77
2019-02-08T00:18:37.612Z,784.77
2019-02-08T00:18:42.210Z,784.82
2019-02-08T00:18:46.577Z,784.77
2019-02-08T00:18:50.939Z,784.8
2019-02-08T00:18:55.348Z,784.82
2019-02-08T00:18:59.718Z,784.81
2019-02-08T00:19:04.094Z,784.78
2019-02-08T00:19:08.433Z,784.82
2019-02-08T00:19:12.807Z,784.83
2019-02-08T00:19:17.143Z,784.79
2019-02-08T00:19:21.456Z,784.82
2019-02-08T00:19:25.787Z,784.82
2019-02-08T00:19:30.112Z,784.77
2019-02-08T00:19:34.320Z,784.78
2019-02-08T00:19:38.731Z,784.81
2019-02-08T00:19:44.042Z,784.83
2019-02-08T00:19:49.202Z,784.83
2019-02-08T00:19:53.458Z,784.81
2019-02-08T00:19:57.830Z,784.82
2019-02-08T00:20:02.470Z,784.85
2019-02-08T00:20:06.885Z,784.86
2019-02-08T00:20:11.263Z,784.87
2019-02-08T00:20:15.614Z,784.88
2019-02-08T00:20:19.860Z,784.82
2019-02-08T00:20:24.207Z,784.88
2019-02-08T00:20:28.558Z,784.91
2019-02-08T00:20:32.889Z,784.89
2019-02-08T00:20:37.247Z,784.91
2019-02-08T00:20:41.610Z,784.95
2019-02-08T00:20:45.838Z,784.94
2019-02-08T00:20:50.062Z,784.93
2019-02-08T00:20:55.951Z,784.98
2019-02-08T00:21:00.516Z,784.97
2019-02-08T00:21:04.899Z,785
2019-02-08T00:21:09.293Z,785
2019-02-08T00:21:13.696Z,785
2019-02-08T00:21:18.083Z,785
2019-02-08T00:21:22.358Z,784.93
2019-02-08T00:21:26.727Z,784.99
2019-02-08T00:21:31.077Z,785
2019-02-08T00:21:35.415Z,785.01
2019-02-08T00:21:39.782Z,785.02
2019-02-08T00:21:44.098Z,785.01
2019-02-08T00:21:48.342Z,785.01
2019-02-08T00:21:52.559Z,785.01
2019-02-08T00:21:56.808Z,785.03
2019-02-08T00:22:01.910Z,785
2019-02-08T00:22:07.400Z,785.01
2019-02-08T00:22:11.745Z,784.99
2019-02-08T00:22:16.115Z,784.96
2019-02-08T00:22:20.443Z,785.04
2019-02-08T00:22:24.786Z,785.05
2019-02-08T00:22:29.163Z,785
2019-02-08T00:22:33.490Z,785.05
2019-02-08T00:22:37.812Z,785.03
2019-02-08T00:22:42.175Z,785.02
2019-02-08T00:22:46.559Z,785.04
2019-02-08T00:22:50.958Z,785.06
2019-02-08T00:22:55.312Z,785.02
2019-02-08T00:22:59.714Z,785.05
2019-02-08T00:23:04.100Z,784.98
2019-02-08T00:23:08.648Z,785.04
2019-02-08T00:23:26.146Z,784.97
2019-02-08T00:23:31.190Z,785.04
2019-02-08T00:23:35.556Z,785.08
2019-02-08T00:23:39.922Z,785.1
2019-02-08T00:23:44.297Z,785.09
2019-02-08T00:23:48.541Z,785.12
2019-02-08T00:23:52.867Z,785.07
2019-02-08T00:23:57.193Z,785.07
2019-02-08T00:24:01.538Z,785.07
2019-02-08T00:24:05.977Z,785.09
2019-02-08T00:24:10.318Z,785.05
2019-02-08T00:24:14.661Z,785.07
2019-02-08T00:24:19.454Z,785.02
2019-02-08T00:24:25.106Z,785.06
2019-02-08T00:24:29.491Z,785.03
2019-02-08T00:24:33.890Z,785.02
2019-02-08T00:24:38.171Z,785.02
2019-02-08T00:24:42.579Z,785.04
2019-02-08T00:24:46.848Z,785.04
2019-02-08T00:24:51.297Z,785.02
2019-02-08T00:24:55.615Z,785.02
2019-02-08T00:24:59.956Z,785.05
2019-02-08T00:25:04.396Z,785.07
2019-02-08T00:25:08.797Z,785.05
2019-02-08T00:25:13.163Z,785.04
2019-02-08T00:25:17.546Z,785.08
2019-02-08T00:25:21.907Z,785.08
2019-02-08T00:25:26.238Z,785.08
2019-02-08T00:25:32.197Z,785.07
2019-02-08T00:25:36.930Z,785.05
2019-02-08T00:25:41.276Z,785.04
2019-02-08T00:25:45.624Z,785.06
2019-02-08T00:25:49.979Z,785.02
2019-02-08T00:25:54.331Z,785.04
2019-02-08T00:25:58.729Z,785.04
2019-02-08T00:26:03.090Z,785.06
2019-02-08T00:26:07.378Z,785.08
2019-02-08T00:26:11.769Z,785.12
2019-02-08T00:26:16.159Z,785.15
2019-02-08T00:26:20.546Z,785.12
2019-02-08T00:26:24.933Z,785.13
2019-02-08T00:26:29.327Z,785.14
2019-02-08T00:26:33.712Z,785.17
2019-02-08T00:26:38.878Z,785.15
2019-02-08T00:26:44.178Z,785.13
2019-02-08T00:26:48.534Z,785.14
2019-02-08T00:26:52.913Z,785.18
2019-02-08T00:26:57.242Z,785.16
2019-02-08T00:27:01.491Z,785.21
2019-02-08T00:27:05.840Z,785.19
2019-02-08T00:27:10.224Z,785.18
2019-02-08T00:27:14.561Z,785.2
2019-02-08T00:27:18.785Z,785.24
2019-02-08T00:27:23.110Z,785.2
2019-02-08T00:27:27.460Z,785.19
2019-02-08T00:27:31.777Z,785.21
2019-02-08T00:27:36.013Z,785.21
2019-02-08T00:27:40.333Z,785.22
2019-02-08T00:27:44.670Z,785.2
2019-02-08T00:27:50.899Z,785.22
2019-02-08T00:27:55.488Z,785.22
2019-02-08T00:27:59.897Z,785.23
2019-02-08T00:28:04.311Z,785.21
2019-02-08T00:28:08.646Z,785.21
2019-02-08T00:28:12.998Z,785.24
2019-02-08T00:28:17.349Z,785.22
2019-02-08T00:28:21.607Z,785.22
2019-02-08T00:28:25.963Z,785.22
2019-02-08T00:28:30.379Z,785.16
2019-02-08T00:28:34.725Z,785.23
2019-02-08T00:28:39.081Z,785.22
2019-02-08T00:28:43.455Z,785.2
2019-02-08T00:28:47.865Z,785.22
2019-02-08T00:28:52.216Z,785.25
2019-02-08T00:28:57.499Z,785.24
2019-02-08T00:29:02.650Z,785.22
2019-02-08T00:29:06.997Z,785.19
2019-02-08T00:29:11.321Z,785.2
2019-02-08T00:29:15.702Z,785.19
2019-02-08T00:29:20.038Z,785.2
2019-02-08T00:29:24.426Z,785.13
2019-02-08T00:29:28.789Z,785.19
2019-02-08T00:29:33.043Z,785.18
2019-02-08T00:29:37.527Z,785.17
2019-02-08T00:29:41.889Z,785.18
2019-02-08T00:29:46.304Z,785.12
2019-02-08T00:29:50.660Z,785.18
2019-02-08T00:29:55.083Z,785.15
2019-02-08T00:29:59.463Z,785.16
2019-02-08T00:30:04.705Z,785.16
2019-02-08T00:30:10.425Z,785.16
2019-02-08T00:30:14.802Z,785.16
2019-02-08T00:30:19.085Z,785.16
2019-02-08T00:30:23.503Z,785.17
2019-02-08T00:30:27.882Z,785.18
2019-02-08T00:30:32.353Z,785.18
2019-02-08T00:30:36.757Z,785.16
2019-02-08T00:30:41.041Z,785.17
2019-02-08T00:30:45.440Z,785.16
2019-02-08T00:30:49.814Z,785.16
2019-02-08T00:30:54.188Z,785.15
2019-02-08T00:30:58.528Z,785.18
2019-02-08T00:31:02.921Z,785.15
2019-02-08T00:31:07.307Z,785.16
2019-02-08T00:31:11.633Z,785.17
2019-02-08T00:31:17.324Z,785.14
2019-02-08T00:31:22.193Z,785.19
2019-02-08T00:31:26.483Z,785.19
2019-02-08T00:31:30.870Z,785.18
2019-02-08T00:31:35.256Z,785.19
2019-02-08T00:31:39.696Z,785.2
2019-02-08T00:31:43.967Z,785.19
2019-02-08T00:31:48.316Z,785.22
2019-02-08T00:31:52.674Z,785.19
2019-02-08T00:31:57.068Z,785.24
2019-02-08T00:32:01.453Z,785.17
2019-02-08T00:32:05.987Z,785.21
2019-02-08T00:32:10.379Z,785.19
2019-02-08T00:32:14.735Z,785.22
2019-02-08T00:32:19.082Z,785.19
2019-02-08T00:32:23.948Z,785.21
2019-02-08T00:32:29.729Z,785.2
2019-02-08T00:32:34.054Z,785.23
2019-02-08T00:32:38.369Z,785.19
2019-02-08T00:32:42.685Z,785.23
2019-02-08T00:32:47.033Z,785.22
2019-02-08T00:32:51.538Z,785.19
2019-02-08T00:32:56.158Z,785.2
2019-02-08T00:33:00.493Z,785.2
2019-02-08T00:33:05.007Z,785.19
2019-02-08T00:33:09.333Z,785.23
2019-02-08T00:33:13.667Z,785.25
2019-02-08T00:33:17.989Z,785.24
2019-02-08T00:33:22.256Z,785.24
2019-02-08T00:33:26.587Z,785.25
2019-02-08T00:33:30.939Z,785.23
2019-02-08T00:33:36.917Z,785.26
2019-02-08T00:33:41.513Z,785.22
2019-02-08T00:33:45.842Z,785.25
2019-02-08T00:33:50.070Z,785.26
2019-02-08T00:33:54.391Z,785.24
2019-02-08T00:33:58.693Z,785.23
2019-02-08T00:34:03.034Z,785.25
2019-02-08T00:34:07.267Z,785.24
2019-02-08T00:34:11.583Z,785.26
2019-02-08T00:34:15.906Z,785.26
2019-02-08T00:34:20.232Z,785.24
2019-02-08T00:34:24.541Z,785.22
2019-02-08T00:34:28.855Z,785.21
2019-02-08T00:34:33.087Z,785.18
2019-02-08T00:34:37.416Z,785.17
2019-02-08T00:34:42.538Z,785.15
2019-02-08T00:34:48.241Z,785.16
2019-02-08T00:34:52.557Z,785.12
2019-02-08T00:34:56.880Z,785.16
2019-02-08T00:35:01.222Z,785.17
2019-02-08T00:35:05.564Z,785.18
2019-02-08T00:35:09.902Z,785.19
2019-02-08T00:35:14.228Z,785.18
2019-02-08T00:35:18.446Z,785.19
2019-02-08T00:35:22.600Z,785.17
2019-02-08T00:35:26.945Z,785.15
2019-02-08T00:35:31.270Z,785.22
2019-02-08T00:35:35.595Z,785.17
2019-02-08T00:35:39.831Z,785.12
2019-02-08T00:35:44.138Z,785.13
2019-02-08T00:35:48.479Z,785.14
2019-02-08T00:35:53.858Z,785.13
2019-02-08T00:35:58.692Z,785.12
2019-02-08T00:36:03.034Z,785.17
2019-02-08T00:36:07.354Z,785.11
2019-02-08T00:36:11.687Z,785.1
2019-02-08T00:36:15.922Z,785.14
2019-02-08T00:36:20.250Z,785.08
2019-02-08T00:36:24.587Z,785.09
2019-02-08T00:36:28.918Z,785.1
2019-02-08T00:36:33.247Z,785.06
2019-02-08T00:36:37.394Z,785.1
2019-02-08T00:36:41.713Z,785.07
2019-02-08T00:36:46.021Z,785.1
2019-02-08T00:36:50.342Z,785.07
2019-02-08T00:36:54.668Z,785.11
2019-02-08T00:36:59.000Z,785.09
2019-02-08T00:37:04.995Z,785.09
2019-02-08T00:37:09.610Z,785.06
2019-02-08T00:37:13.946Z,784.99
2019-02-08T00:37:18.278Z,785.04
2019-02-08T00:37:22.600Z,785.05
2019-02-08T00:37:26.838Z,785.05
2019-02-08T00:37:31.166Z,785.07
2019-02-08T00:37:35.489Z,784.99
2019-02-08T00:37:39.828Z,785.05
2019-02-08T00:37:44.146Z,785.07
2019-02-08T00:37:48.464Z,785.03
2019-02-08T00:37:52.790Z,785.06
2019-02-08T00:37:56.938Z,785.04
2019-02-08T00:38:01.278Z,785.02
2019-02-08T00:38:05.604Z,785.07
2019-02-08T00:38:10.497Z,785.06
2019-02-08T00:38:16.050Z,784.99
2019-02-08T00:38:20.378Z,785.02
2019-02-08T00:38:24.693Z,785.01
2019-02-08T00:38:28.948Z,785.02
2019-02-08T00:38:33.268Z,785.04
2019-02-08T00:38:37.627Z,785.04
2019-02-08T00:38:41.849Z,785
2019-02-08T00:38:46.173Z,785.02
2019-02-08T00:38:50.488Z,785.01
2019-02-08T00:38:54.802Z,784.98
2019-02-08T00:38:59.150Z,785.04
2019-02-08T00:39:18.684Z,784.93
2019-02-08T00:39:24.837Z,784.97
2019-02-08T00:39:29.182Z,784.97
2019-02-08T00:39:33.518Z,785
2019-02-08T00:39:37.842Z,784.99
2019-02-08T00:39:42.174Z,785
2019-02-08T00:39:46.502Z,784.96
2019-02-08T00:39:50.731Z,785.01
2019-02-08T00:39:55.056Z,784.99
2019-02-08T00:39:59.383Z,785
2019-02-08T00:40:03.832Z,784.99
2019-02-08T00:40:08.152Z,785.01
2019-02-08T00:40:12.513Z,785
2019-02-08T00:40:16.743Z,784.97
2019-02-08T00:40:21.082Z,784.96
2019-02-08T00:40:25.416Z,785
2019-02-08T00:40:33.267Z,785
2019-02-08T00:40:37.590Z,784.99
2019-02-08T00:40:41.902Z,784.98
2019-02-08T00:40:46.233Z,784.98
2019-02-08T00:40:50.553Z,784.94
2019-02-08T00:40:54.868Z,784.94
2019-02-08T00:40:59.198Z,784.96
2019-02-08T00:41:03.518Z,784.98
2019-02-08T00:41:07.837Z,785.03
2019-02-08T00:41:12.160Z,784.99
2019-02-08T00:41:16.485Z,784.99
2019-02-08T00:41:20.811Z,784.97
2019-02-08T00:41:25.045Z,785
2019-02-08T00:41:29.367Z,784.99
2019-02-08T00:41:33.702Z,785.01
2019-02-08T00:41:39.268Z,784.98
2019-02-08T00:41:44.262Z,785.01
2019-02-08T00:41:48.586Z,784.97
2019-02-08T00:41:52.898Z,785.04
2019-02-08T00:41:57.212Z,785.01
2019-02-08T00:42:01.549Z,785.01
2019-02-08T00:42:05.812Z,784.96
2019-02-08T00:42:10.128Z,784.94
2019-02-08T00:42:14.456Z,784.93
2019-02-08T00:42:18.778Z,784.92
2019-02-08T00:42:23.095Z,784.95
2019-02-08T00:42:27.408Z,784.96
2019-02-08T00:42:31.740Z,784.95
2019-02-08T00:42:35.971Z,784.94
2019-02-08T00:42:40.310Z,784.95
2019-02-08T00:42:45.072Z,784.93
2019-02-08T00:42:51.308Z,784.93
2019-02-08T00:42:55.656Z,784.91
2019-02-08T00:42:59.982Z,784.88
2019-02-08T00:43:04.125Z,784.93
2019-02-08T00:43:08.446Z,784.98
2019-02-08T00:43:12.780Z,784.96
2019-02-08T00:43:17.112Z,784.98
2019-02-08T00:43:21.328Z,784.97
2019-02-08T00:43:25.655Z,784.93
2019-02-08T00:43:29.888Z,785
2019-02-08T00:43:34.205Z,785
2019-02-08T00:43:38.540Z,785
2019-02-08T00:43:42.768Z,785.01
2019-02-08T00:43:47.078Z,784.98
2019-02-08T00:43:51.289Z,784.96
2019-02-08T00:43:56.548Z,784.97
2019-02-08T00:44:01.526Z,784.96
2019-02-08T00:44:06.083Z,784.97
2019-02-08T00:44:10.417Z,784.95
2019-02-08T00:44:14.566Z,784.98
2019-02-08T00:44:18.888Z,784.95
2019-02-08T00:44:23.237Z,784.98
2019-02-08T00:44:27.568Z,784.89
2019-02-08T00:44:31.880Z,784.91
2019-02-08T00:44:36.194Z,784.91
2019-02-08T00:44:40.546Z,784.94
2019-02-08T00:44:44.868Z,784.94
2019-02-08T00:44:49.097Z,784.93
2019-02-08T00:44:53.418Z,784.9
2019-02-08T00:44:57.746Z,784.91
2019-02-08T00:45:02.222Z,784.87
2019-02-08T00:45:08.383Z,784.9
2019-02-08T00:45:13.125Z,784.89
2019-02-08T00:45:17.454Z,784.89
2019-02-08T00:45:21.780Z,784.91
2019-02-08T00:45:26.027Z,784.83
2019-02-08T00:45:30.358Z,784.9
2019-02-08T00:45:34.682Z,784.91
2019-02-08T00:45:39.041Z,784.91
2019-02-08T00:45:43.385Z,784.91
2019-02-08T00:45:47.608Z,784.9
2019-02-08T00:45:51.917Z,784.9
2019-02-08T00:45:56.235Z,784.9
2019-02-08T00:46:00.548Z,784.87
2019-02-08T00:46:04.877Z,784.89
2019-02-08T00:46:09.220Z,784.9
2019-02-08T00:46:14.230Z,784.94
2019-02-08T00:46:19.861Z,784.92
2019-02-08T00:46:24.191Z,784.91
2019-02-08T00:46:28.530Z,784.93
2019-02-08T00:46:32.846Z,784.93
2019-02-08T00:46:37.171Z,784.92
2019-02-08T00:46:41.493Z,784.94
2019-02-08T00:46:45.853Z,784.94
2019-02-08T00:46:50.170Z,784.99
2019-02-08T00:46:54.506Z,784.99
2019-02-08T00:46:58.823Z,784.97
2019-02-08T00:47:03.214Z,784.99
2019-02-08T00:47:07.445Z,784.99
2019-02-08T00:47:11.778Z,785.04
2019-02-08T00:47:16.114Z,785.02
2019-02-08T00:47:20.430Z,785.02
2019-02-08T00:47:26.446Z,785.05
2019-02-08T00:47:31.323Z,785.01
2019-02-08T00:47:35.641Z,785.04
2019-02-08T00:47:39.953Z,784.99
2019-02-08T00:47:44.277Z,785
2019-02-08T00:47:48.605Z,785.03
2019-02-08T00:47:52.935Z,785.03
2019-02-08T00:47:57.285Z,784.98
2019-02-08T00:48:01.616Z,784.99
2019-02-08T00:48:06.005Z,785.03
2019-02-08T00:48:10.318Z,784.96
2019-02-08T00:48:14.650Z,785.01
2019-02-08T00:48:18.991Z,785.01
2019-02-08T00:48:23.308Z,784.95
2019-02-08T00:48:27.635Z,785.02
2019-02-08T00:48:32.141Z,784.93
2019-02-08T00:48:37.864Z,784.97
2019-02-08T00:48:42.085Z,784.98
2019-02-08T00:48:46.417Z,784.94
2019-02-08T00:48:50.758Z,785
2019-02-08T00:48:55.083Z,784.97
2019-02-08T00:48:59.427Z,784.95
2019-02-08T00:49:03.745Z,784.92
2019-02-08T00:49:08.073Z,784.95
2019-02-08T00:49:12.412Z,784.92
2019-02-08T00:49:16.733Z,784.97
2019-02-08T00:49:20.952Z,784.9
2019-02-08T00:49:25.272Z,784.89
2019-02-08T00:49:29.583Z,784.9
2019-02-08T00:49:33.821Z,784.88
2019-02-08T00:49:38.156Z,784.9
2019-02-08T00:49:43.678Z,784.91
2019-02-08T00:49:48.817Z,784.92
2019-02-08T00:49:53.129Z,784.95
2019-02-08T00:49:57.440Z,784.96
2019-02-08T00:50:01.675Z,784.93
2019-02-08T00:50:06.009Z,784.94
2019-02-08T00:50:10.332Z,784.95
2019-02-08T00:50:14.660Z,784.95
2019-02-08T00:50:18.883Z,784.94
2019-02-08T00:50:23.106Z,784.89
2019-02-08T00:50:27.436Z,784.88
2019-02-08T00:50:31.753Z,784.91
2019-02-08T00:50:36.081Z,784.87
2019-02-08T00:50:40.423Z,784.9
2019-02-08T00:50:44.754Z,784.86
2019-02-08T00:50:49.080Z,784.88
2019-02-08T00:50:54.595Z,784.92
2019-02-08T00:50:59.374Z,784.88
2019-02-08T00:51:03.711Z,784.87
2019-02-08T00:51:08.026Z,784.87
2019-02-08T00:51:12.340Z,784.88
2019-02-08T00:51:16.664Z,784.83
2019-02-08T00:51:20.802Z,784.89
2019-02-08T00:51:25.029Z,784.88
2019-02-08T00:51:29.364Z,784.88
2019-02-08T00:51:33.698Z,784.9
2019-02-08T00:51:38.023Z,784.87
2019-02-08T00:51:42.358Z,784.87
2019-02-08T00:51:46.705Z,784.91
2019-02-08T00:51:51.025Z,784.88
2019-02-08T00:51:55.349Z,784.88
2019-02-08T00:52:00.060Z,784.83
2019-02-08T00:52:06.160Z,784.89
2019-02-08T00:52:10.382Z,784.89
2019-02-08T00:52:14.694Z,784.89
2019-02-08T00:52:19.026Z,784.91
2019-02-08T00:52:23.341Z,784.9
2019-02-08T00:52:27.665Z,784.88
2019-02-08T00:52:31.989Z,784.85
2019-02-08T00:52:36.322Z,784.87
2019-02-08T00:52:40.539Z,784.86
2019-02-08T00:52:44.879Z,784.86
2019-02-08T00:52:50.588Z,784.88
2019-02-08T00:52:54.959Z,784.88
2019-02-08T00:52:59.345Z,784.9
2019-02-08T00:53:03.679Z,784.92
2019-02-08T00:53:08.079Z,784.92
2019-02-08T00:53:14.054Z,784.92
2019-02-08T00:53:18.582Z,784.9
2019-02-08T00:53:22.898Z,784.9
2019-02-08T00:53:34.058Z,784.91
2019-02-08T00:53:38.380Z,784.93
2019-02-08T00:53:42.696Z,784.91
2019-02-08T00:53:47.024Z,784.9
2019-02-08T00:53:51.343Z,784.86
2019-02-08T00:53:55.668Z,784.87
2019-02-08T00:53:59.995Z,784.89
2019-02-08T00:54:04.318Z,784.9
2019-02-08T00:54:08.656Z,784.86
2019-02-08T00:54:12.975Z,784.92
2019-02-08T00:54:17.305Z,784.94
2019-02-08T00:54:23.157Z,784.88
2019-02-08T00:54:27.887Z,784.9
2019-02-08T00:54:32.240Z,784.95
2019-02-08T00:54:36.563Z,784.94
2019-02-08T00:54:40.879Z,784.99
2019-02-08T00:54:45.206Z,784.95
2019-02-08T00:54:49.436Z,784.94
2019-02-08T00:54:53.758Z,784.97
2019-02-08T00:54:58.073Z,784.97
2019-02-08T00:55:02.495Z,784.88
2019-02-08T00:55:06.850Z,784.89
2019-02-08T00:55:11.165Z,784.89
2019-02-08T00:55:15.392Z,784.94
2019-02-08T00:55:19.535Z,784.96
2019-02-08T00:55:23.770Z,784.97
2019-02-08T00:55:28.792Z,784.92
2019-02-08T00:55:34.660Z,784.92
2019-02-08T00:55:38.983Z,784.93
2019-02-08T00:55:43.328Z,784.95
2019-02-08T00:55:47.666Z,784.95
2019-02-08T00:55:52.007Z,785
2019-02-08T00:55:56.137Z,785.01
2019-02-08T00:56:00.450Z,784.96
2019-02-08T00:56:04.874Z,784.94
2019-02-08T00:56:09.228Z,784.96
2019-02-08T00:56:13.540Z,784.98
2019-02-08T00:56:17.762Z,784.99
2019-02-08T00:56:22.088Z,785.01
2019-02-08T00:56:26.313Z,785.04
2019-02-08T00:56:30.629Z,785.02
2019-02-08T00:56:34.948Z,785.05
2019-02-08T00:56:40.527Z,785.03